Time;durP1;ratioP1;P1;durP2;ratioP2;P2;SDS_P1;SDS_P2;PMS_P1;PMS_P2;Temp;Humidity;BMP_temperature;BMP_pressure;BME280_temperature;BME280_humidity;BME280_pressure;Samples;Min_cycle;Max_cycle;Signal;HPM_P1;HPM_P2
2021/10/06 00:00:49;;;;;;;17.98;9.73;;;;;;;10.64;65.16;101973.56;1743919;81;21039;-58
2021/10/06 00:03:16;;;;;;;16.12;10.05;;;;;;;10.60;65.11;101970.42;1743699;81;21140;-57
2021/10/06 00:05:44;;;;;;;24.23;10.97;;;;;;;10.55;65.26;101966.59;1749293;80;20901;-58
2021/10/06 00:08:10;;;;;;;19.57;9.80;;;;;;;10.51;65.44;101968.78;1743963;81;20893;-58
2021/10/06 00:10:37;;;;;;;19.73;8.18;;;;;;;10.50;65.55;101971.16;1746779;81;21063;-57
2021/10/06 00:13:05;;;;;;;16.32;7.85;;;;;;;10.49;65.77;101965.46;1741979;81;21006;-58
2021/10/06 00:15:31;;;;;;;20.45;8.78;;;;;;;10.48;65.87;101965.98;1746422;81;21919;-58
2021/10/06 00:17:58;;;;;;;15.93;7.12;;;;;;;10.47;65.93;101968.84;1741496;81;21462;-57
2021/10/06 00:20:24;;;;;;;16.90;7.42;;;;;;;10.45;66.03;101960.98;1744860;81;21426;-59
2021/10/06 00:22:51;;;;;;;12.90;7.65;;;;;;;10.43;66.04;101962.98;1742336;81;20932;-58
2021/10/06 00:25:17;;;;;;;12.98;6.67;;;;;;;10.40;66.23;101955.30;1746484;81;20940;-57
2021/10/06 00:27:45;;;;;;;10.85;6.33;;;;;;;10.39;66.38;101956.30;1743934;80;21145;-58
2021/10/06 00:30:12;;;;;;;15.93;7.12;;;;;;;10.37;66.52;101958.86;1747048;81;20924;-58
2021/10/06 00:32:38;;;;;;;16.32;7.33;;;;;;;10.36;66.67;101954.50;1743117;81;20904;-58
2021/10/06 00:35:06;;;;;;;12.03;6.83;;;;;;;10.33;66.72;101966.38;1746350;81;21522;-57
2021/10/06 00:37:34;;;;;;;13.00;7.22;;;;;;;10.34;66.71;101968.91;1741785;81;20986;-59
2021/10/06 00:40:02;;;;;;;12.65;7.20;;;;;;;10.33;66.68;101965.03;1744439;81;21991;-58
2021/10/06 00:42:28;;;;;;;11.57;6.67;;;;;;;10.31;66.68;101963.05;1742655;81;21521;-58
2021/10/06 00:44:55;;;;;;;13.43;7.15;;;;;;;10.28;66.75;101968.77;1744609;81;20940;-56
2021/10/06 00:47:21;;;;;;;15.55;7.72;;;;;;;10.24;66.89;101967.44;1746539;81;21819;-57
2021/10/06 00:49:47;;;;;;;15.43;8.75;;;;;;;10.24;66.92;101962.08;1745185;81;21033;-57
2021/10/06 00:52:15;;;;;;;12.23;8.18;;;;;;;10.24;67.00;101966.92;1742528;81;21146;-58
2021/10/06 00:54:42;;;;;;;15.40;8.48;;;;;;;10.23;67.03;101967.95;1745210;81;20932;-58
2021/10/06 00:57:09;;;;;;;12.40;7.60;;;;;;;10.23;67.14;101960.41;1743049;81;20920;-59
2021/10/06 00:59:36;;;;;;;13.18;7.25;;;;;;;10.22;67.50;101960.92;1743018;81;20948;-58
2021/10/06 01:02:03;;;;;;;12.23;6.75;;;;;;;10.18;67.65;101961.77;1743077;81;20992;-59
2021/10/06 01:04:32;;;;;;;14.33;7.17;;;;;;;10.17;67.87;101964.63;1746178;81;21066;-59
2021/10/06 01:06:59;;;;;;;10.18;7.22;;;;;;;10.14;67.97;101971.67;1744242;81;20995;-59
2021/10/06 01:09:28;;;;;;;13.25;7.65;;;;;;;10.12;68.16;101965.67;1744968;81;21011;-59
2021/10/06 01:11:57;;;;;;;12.58;7.65;;;;;;;10.10;68.26;101959.63;1746014;81;20979;-58
2021/10/06 01:14:24;;;;;;;10.82;7.20;;;;;;;10.08;68.46;101957.12;1743870;81;21019;-58
2021/10/06 01:16:51;;;;;;;13.25;7.53;;;;;;;10.07;68.72;101958.65;1746428;81;21147;-58
2021/10/06 01:19:22;;;;;;;14.07;8.30;;;;;;;10.07;68.96;101954.14;1743748;81;20932;-59
2021/10/06 01:21:50;;;;;;;14.05;8.08;;;;;;;10.07;68.96;101954.14;1744340;81;21054;-58
2021/10/06 01:24:16;;;;;;;10.65;7.30;;;;;;;10.09;69.03;101953.97;1744855;81;21011;-59
2021/10/06 01:26:43;;;;;;;11.45;7.10;;;;;;;10.07;69.03;101955.48;1744903;81;20984;-58
2021/10/06 01:29:10;;;;;;;10.00;6.90;;;;;;;10.10;69.12;101958.29;1744401;80;21103;-58
2021/10/06 01:31:37;;;;;;;12.15;7.12;;;;;;;10.11;69.26;101970.69;1743358;81;20996;-59
2021/10/06 01:34:04;;;;;;;10.82;7.28;;;;;;;10.08;69.30;101970.53;1742452;81;21457;-58
2021/10/06 01:36:31;;;;;;;10.63;6.62;;;;;;;10.05;69.46;101972.73;1744925;81;22037;-59
2021/10/06 01:38:58;;;;;;;12.33;7.03;;;;;;;9.99;69.52;101971.08;1742806;81;21548;-59
2021/10/06 01:41:25;;;;;;;9.68;6.53;;;;;;;9.94;69.59;101969.44;1745782;81;21120;-59
2021/10/06 01:43:51;;;;;;;9.25;6.22;;;;;;;9.90;69.66;101971.31;1727665;81;20916;-58
2021/10/06 01:46:17;;;;;;;14.53;7.30;;;;;;;9.86;69.64;101968.13;1744856;81;21059;-59
2021/10/06 01:48:44;;;;;;;9.20;6.85;;;;;;;9.85;69.70;101967.81;1744739;81;21020;-58
2021/10/06 01:51:11;;;;;;;15.90;7.42;;;;;;;9.85;69.65;101972.32;1742182;80;21079;-57
2021/10/06 01:53:39;;;;;;;11.33;6.65;;;;;;;9.82;69.67;101972.19;1746091;81;21127;-59
2021/10/06 01:56:06;;;;;;;12.70;6.78;;;;;;;9.78;69.78;101968.18;1746805;81;20996;-60
2021/10/06 01:58:32;;;;;;;11.55;7.10;;;;;;;9.75;69.86;101976.56;1742923;81;20940;-59
2021/10/06 02:01:00;;;;;;;17.27;7.85;;;;;;;9.74;70.08;101980.24;1746378;81;21494;-60
2021/10/06 02:03:27;;;;;;;11.28;7.70;;;;;;;9.71;70.25;101976.06;1741720;81;21726;-59
2021/10/06 02:05:54;;;;;;;10.98;6.90;;;;;;;9.70;70.39;101978.91;1746412;81;21135;-58
2021/10/06 02:08:21;;;;;;;18.45;6.80;;;;;;;9.70;70.61;101976.23;1744021;81;21000;-58
2021/10/06 02:10:47;;;;;;;18.17;7.80;;;;;;;9.68;70.77;101975.58;1742482;81;20948;-58
2021/10/06 02:13:14;;;;;;;11.08;7.25;;;;;;;9.68;70.85;101975.58;1744829;81;20947;-58
2021/10/06 02:15:41;;;;;;;12.28;7.22;;;;;;;9.71;71.05;101983.27;1740026;81;21050;-57
2021/10/06 02:18:09;;;;;;;20.87;8.40;;;;;;;9.73;71.33;101983.44;1744440;81;21627;-58
2021/10/06 02:20:36;;;;;;;13.13;7.50;;;;;;;9.73;71.33;101983.44;1743843;81;21486;-59
2021/10/06 02:23:02;;;;;;;14.30;7.97;;;;;;;9.73;71.48;101991.47;1744544;81;20912;-60
2021/10/06 02:25:29;;;;;;;14.45;7.42;;;;;;;9.73;71.61;101996.83;1744293;81;20940;-57
2021/10/06 02:27:56;;;;;;;17.07;7.30;;;;;;;9.74;71.68;101990.44;1747213;81;20928;-58
2021/10/06 02:30:23;;;;;;;13.70;7.85;;;;;;;9.76;71.65;101993.80;1742519;81;21119;-59
2021/10/06 02:32:49;;;;;;;12.82;6.30;;;;;;;9.79;71.76;102000.14;1745555;81;21566;-58
2021/10/06 02:35:16;;;;;;;11.38;6.75;;;;;;;9.76;71.80;101993.80;1741674;81;21059;-59
2021/10/06 02:37:42;;;;;;;11.43;6.92;;;;;;;9.73;71.83;101999.50;1745036;81;20972;-60
2021/10/06 02:40:12;;;;;;;13.13;7.20;;;;;;;9.70;71.86;101994.98;1756634;80;21465;-60
2021/10/06 02:42:39;;;;;;;12.53;6.67;;;;;;;9.69;71.81;102000.84;1758728;81;21140;-58
2021/10/06 02:45:08;;;;;;;16.37;6.78;;;;;;;9.67;71.81;101993.47;1757147;81;20988;-58
2021/10/06 02:47:35;;;;;;;10.63;6.75;;;;;;;9.66;71.79;102003.88;1754219;81;21557;-57
2021/10/06 02:50:03;;;;;;;13.35;7.08;;;;;;;9.65;71.87;102004.36;1757677;81;20876;-57
2021/10/06 02:52:31;;;;;;;10.18;7.45;;;;;;;9.63;71.89;102012.25;1755861;80;20892;-58
2021/10/06 02:54:58;;;;;;;13.68;6.83;;;;;;;9.61;71.94;102010.23;1757603;80;21129;-56
2021/10/06 02:57:24;;;;;;;9.98;6.30;;;;;;;9.58;72.01;102011.92;1758196;80;21003;-57
2021/10/06 02:59:51;;;;;;;8.15;6.60;;;;;;;9.58;72.08;102020.77;1755941;81;20947;-60
2021/10/06 03:02:17;;;;;;;10.30;6.87;;;;;;;9.58;72.16;102019.44;1757809;80;21631;-57
2021/10/06 03:04:44;;;;;;;10.40;6.78;;;;;;;9.58;72.17;102016.76;1756710;80;21084;-58
2021/10/06 03:07:10;;;;;;;8.68;5.90;;;;;;;9.59;72.17;102020.29;1755823;81;21075;-57
2021/10/06 03:09:37;;;;;;;10.32;6.75;;;;;;;9.58;72.24;102027.98;1760065;80;20972;-58
2021/10/06 03:12:04;;;;;;;16.50;7.30;;;;;;;9.54;72.31;102031.52;1754262;80;21584;-59
2021/10/06 03:14:30;;;;;;;12.03;8.15;;;;;;;9.51;72.34;102026.99;1758846;81;21748;-58
2021/10/06 03:16:57;;;;;;;14.73;6.80;;;;;;;9.49;72.30;102029.84;1754928;80;21568;-58
2021/10/06 03:19:24;;;;;;;9.20;6.58;;;;;;;9.50;72.27;102029.36;1756635;81;21912;-58
2021/10/06 03:21:50;;;;;;;11.40;7.40;;;;;;;9.49;72.20;102031.18;1754648;80;20876;-59
2021/10/06 03:24:17;;;;;;;9.43;6.72;;;;;;;9.47;72.15;102037.22;1757819;80;20971;-59
2021/10/06 03:26:43;;;;;;;15.05;7.83;;;;;;;9.46;72.07;102035.54;1759868;80;21089;-58
2021/10/06 03:29:10;;;;;;;14.28;7.33;;;;;;;9.44;72.06;102031.69;1753549;79;21321;-59
2021/10/06 03:31:37;;;;;;;11.60;7.60;;;;;;;9.44;71.96;102035.70;1758955;80;21512;-58
2021/10/06 03:34:03;;;;;;;14.43;7.15;;;;;;;9.43;71.95;102031.87;1755090;80;20899;-58
2021/10/06 03:36:30;;;;;;;13.80;7.03;;;;;;;9.42;71.97;102032.86;1755931;81;20943;-58
2021/10/06 03:38:57;;;;;;;10.85;7.12;;;;;;;9.42;71.97;102031.52;1752368;81;20904;-61
2021/10/06 03:41:23;;;;;;;12.15;6.78;;;;;;;9.41;71.93;102032.55;1744248;81;21012;-59
2021/10/06 03:43:49;;;;;;;10.43;6.80;;;;;;;9.37;71.94;102029.36;1744376;81;21851;-59
2021/10/06 03:46:16;;;;;;;12.60;6.50;;;;;;;9.37;71.96;102035.23;1745271;81;20971;-59
2021/10/06 03:48:45;;;;;;;10.15;6.75;;;;;;;9.35;72.03;102035.88;1742594;81;20904;-59
2021/10/06 03:51:11;;;;;;;;;;;;;;;9.33;72.04;102032.03;1751139;81;21004;-59
2021/10/06 03:53:39;;;;;;;15.90;7.55;;;;;;;9.32;72.06;102038.89;1744262;81;20147;-60
2021/10/06 03:56:07;;;;;;;14.10;7.08;;;;;;;9.30;72.10;102039.06;1745234;81;21294;-58
2021/10/06 03:58:35;;;;;;;16.43;8.17;;;;;;;9.28;72.12;102032.55;1746767;81;20984;-57
2021/10/06 04:01:03;;;;;;;12.30;7.58;;;;;;;9.26;72.20;102038.58;1741876;81;21291;-60
2021/10/06 04:03:29;;;;;;;14.03;8.25;;;;;;;9.27;72.22;102042.08;1747360;81;21015;-59
2021/10/06 04:05:56;;;;;;;12.43;8.03;;;;;;;9.27;72.21;102041.57;1743654;81;21102;-58
2021/10/06 04:08:23;;;;;;;13.48;7.12;;;;;;;9.28;72.19;102044.59;1744497;81;21127;-58
2021/10/06 04:10:49;;;;;;;10.40;7.60;;;;;;;9.32;72.04;102045.59;1746311;81;21544;-59
2021/10/06 04:13:16;;;;;;;15.43;7.58;;;;;;;9.33;71.95;102048.61;1743381;81;20971;-58
2021/10/06 04:15:42;;;;;;;15.00;8.03;;;;;;;9.32;71.78;102048.27;1746594;81;20980;-58
2021/10/06 04:18:10;;;;;;;14.18;7.25;;;;;;;9.30;71.58;102043.08;1740297;81;21043;-59
2021/10/06 04:20:36;;;;;;;12.53;7.67;;;;;;;9.31;71.50;102047.95;1744437;81;21168;-59
2021/10/06 04:23:03;;;;;;;14.20;7.72;;;;;;;9.31;71.38;102048.78;1746842;81;21443;-59
2021/10/06 04:25:30;;;;;;;13.53;6.95;;;;;;;9.34;71.28;102051.11;1743969;81;21443;-58
2021/10/06 04:27:57;;;;;;;18.82;7.25;;;;;;;9.38;71.13;102055.13;1740643;81;20940;-59
2021/10/06 04:30:23;;;;;;;14.90;7.65;;;;;;;9.43;70.99;102056.78;1745221;81;20951;-58
2021/10/06 04:32:51;;;;;;;14.55;7.92;;;;;;;9.68;70.85;102062.61;1742498;81;21258;-57
2021/10/06 04:35:17;;;;;;;14.47;7.72;;;;;;;10.24;69.42;102063.41;1743679;81;21046;-59
2021/10/06 04:37:44;;;;;;;15.72;7.00;;;;;;;10.88;68.06;102061.09;1741349;81;20980;-58
2021/10/06 04:40:12;;;;;;;13.28;7.47;;;;;;;11.52;66.16;102056.66;1746343;81;21063;-58
2021/10/06 04:42:38;;;;;;;12.05;7.85;;;;;;;12.05;63.68;102064.67;1743578;81;21015;-57
2021/10/06 04:45:07;;;;;;;11.65;7.20;;;;;;;12.12;62.76;102064.77;1740726;81;21147;-58
2021/10/06 04:47:35;;;;;;;16.15;7.42;;;;;;;11.97;62.67;102072.00;1745874;81;21557;-59
2021/10/06 04:50:03;;;;;;;10.90;7.22;;;;;;;11.80;63.29;102073.50;1757376;79;20876;-60
2021/10/06 04:52:31;;;;;;;12.18;7.00;;;;;;;11.77;63.96;102075.21;1746347;81;21046;-58
2021/10/06 04:54:58;;;;;;;12.53;6.97;;;;;;;11.79;63.89;102077.71;1745196;80;21049;-59
2021/10/06 04:57:24;;;;;;;10.55;6.80;;;;;;;11.89;63.84;102078.27;1742889;81;21908;-59
2021/10/06 04:59:51;;;;;;;14.25;7.08;;;;;;;12.02;63.51;102075.80;1745174;80;20955;-58
2021/10/06 05:02:17;;;;;;;9.43;7.53;;;;;;;12.21;63.28;102072.22;1746974;81;20991;-58
2021/10/06 05:04:44;;;;;;;13.35;7.22;;;;;;;12.47;62.27;102078.45;1742292;81;21343;-58
2021/10/06 05:07:10;;;;;;;17.30;7.55;;;;;;;12.66;61.42;102078.34;1744015;81;21532;-59
2021/10/06 05:09:37;;;;;;;18.42;7.10;;;;;;;12.89;60.74;102085.41;1746387;80;21312;-58
2021/10/06 05:12:04;;;;;;;11.65;6.72;;;;;;;13.24;60.08;102081.48;1745577;81;20884;-58
2021/10/06 05:14:31;;;;;;;10.30;7.40;;;;;;;13.77;59.05;102081.08;1741568;81;20944;-59
2021/10/06 05:16:58;;;;;;;13.95;8.23;;;;;;;14.39;57.18;102086.58;1745263;81;21078;-57
2021/10/06 05:19:25;;;;;;;18.98;7.50;;;;;;;15.09;56.30;102091.75;1746144;81;21063;-59
2021/10/06 05:21:51;;;;;;;15.85;6.92;;;;;;;15.82;53.52;102101.20;1743231;81;21158;-58
2021/10/06 05:24:17;;;;;;;11.60;6.70;;;;;;;16.39;51.83;102093.33;1742592;81;21712;-58
2021/10/06 05:26:44;;;;;;;11.88;6.47;;;;;;;16.88;49.47;102101.83;1745718;81;21399;-58
2021/10/06 05:29:11;;;;;;;13.55;7.00;;;;;;;17.15;48.53;102097.58;1743324;81;20948;-59
2021/10/06 05:31:39;;;;;;;13.35;7.00;;;;;;;17.28;47.42;102102.89;1743810;81;21055;-60
2021/10/06 05:34:05;;;;;;;10.53;6.95;;;;;;;17.31;47.52;102109.76;1743962;81;23325;-61
2021/10/06 05:36:32;;;;;;;10.75;5.85;;;;;;;17.25;47.41;102106.58;1745316;81;21509;-60
2021/10/06 05:38:58;;;;;;;9.83;6.08;;;;;;;17.11;47.47;102112.64;1745825;81;21004;-59
2021/10/06 05:41:24;;;;;;;11.12;6.50;;;;;;;16.78;48.34;102105.01;1741123;81;20974;-58
2021/10/06 05:43:51;;;;;;;11.40;6.65;;;;;;;16.58;48.73;102108.34;1747512;80;21561;-58
2021/10/06 05:46:17;;;;;;;10.45;5.83;;;;;;;16.38;48.85;102107.89;1745533;81;21137;-60
2021/10/06 05:48:44;;;;;;;11.35;5.28;;;;;;;16.10;49.54;102117.15;1743847;81;21172;-60
2021/10/06 05:51:11;;;;;;;12.18;5.95;;;;;;;15.91;50.00;102120.20;1746826;81;21510;-57
2021/10/06 05:53:38;;;;;;;12.23;6.08;;;;;;;15.77;50.44;102117.21;1748645;80;21109;-60
2021/10/06 05:56:05;;;;;;;9.28;5.97;;;;;;;15.80;50.65;102124.93;1744646;81;21581;-58
2021/10/06 05:58:32;;;;;;;7.15;5.20;;;;;;;15.96;50.47;102122.30;1743304;81;21558;-58
2021/10/06 06:00:58;;;;;;;9.90;5.17;;;;;;;16.18;50.22;102111.20;1739162;81;20944;-58
2021/10/06 06:03:25;;;;;;;10.85;5.50;;;;;;;16.41;49.89;102123.70;1745962;81;21031;-57
2021/10/06 06:05:53;;;;;;;11.75;6.12;;;;;;;16.59;48.68;102118.11;1745750;81;20939;-58
2021/10/06 06:08:19;;;;;;;13.18;6.00;;;;;;;16.76;49.03;102114.39;1745474;81;21533;-59
2021/10/06 06:10:45;;;;;;;13.85;5.80;;;;;;;17.23;47.85;102119.00;1744989;81;21142;-58
2021/10/06 06:13:12;;;;;;;8.00;5.72;;;;;;;17.74;46.30;102114.91;1746277;81;20972;-59
2021/10/06 06:15:38;;;;;;;8.75;5.10;;;;;;;18.35;44.94;102109.98;1744017;81;21557;-58
2021/10/06 06:18:05;;;;;;;12.43;4.90;;;;;;;19.15;43.17;102114.02;1745071;81;21030;-57
2021/10/06 06:20:32;;;;;;;6.92;5.12;;;;;;;19.95;40.08;102115.39;1742853;81;20928;-57
2021/10/06 06:22:58;;;;;;;9.85;4.83;;;;;;;20.17;39.36;102116.95;1743684;81;21150;-58
2021/10/06 06:25:24;;;;;;;6.87;4.33;;;;;;;20.53;39.05;102126.37;1744561;81;21426;-59
2021/10/06 06:27:51;;;;;;;9.30;5.33;;;;;;;20.97;36.91;102119.85;1741722;80;21070;-59
2021/10/06 06:30:18;;;;;;;8.25;5.37;;;;;;;21.22;37.15;102122.19;1745557;81;20980;-59
2021/10/06 06:32:44;;;;;;;8.35;5.42;;;;;;;21.47;35.28;102127.22;1743792;81;20991;-58
2021/10/06 06:35:11;;;;;;;8.65;4.75;;;;;;;21.24;35.49;102121.39;1745078;81;22110;-59
2021/10/06 06:37:38;;;;;;;11.48;6.42;;;;;;;21.09;35.97;102123.88;1743561;81;20971;-58
2021/10/06 06:40:07;;;;;;;10.75;5.47;;;;;;;21.21;35.11;102130.06;1744724;80;20873;-59
2021/10/06 06:42:35;;;;;;;10.60;5.65;;;;;;;21.14;35.74;102122.58;1746758;81;20936;-57
2021/10/06 06:45:03;;;;;;;9.28;5.28;;;;;;;21.08;36.06;102139.41;1743811;81;21539;-57
2021/10/06 06:47:30;;;;;;;11.03;4.83;;;;;;;20.46;37.32;102142.33;1742022;81;21127;-58
2021/10/06 06:49:57;;;;;;;14.30;5.35;;;;;;;19.63;39.06;102136.67;1744719;80;21028;-59
2021/10/06 06:52:23;;;;;;;9.33;4.90;;;;;;;18.83;40.55;102131.91;1745433;81;20968;-59
2021/10/06 06:54:50;;;;;;;11.28;5.10;;;;;;;17.97;42.51;102138.70;1742734;81;21470;-58
2021/10/06 06:57:16;;;;;;;14.40;5.45;;;;;;;17.44;44.01;102138.64;1745225;81;21015;-57
2021/10/06 06:59:44;;;;;;;15.58;5.65;;;;;;;16.97;44.97;102145.24;1745083;80;21129;-59
2021/10/06 07:02:13;;;;;;;16.35;6.78;;;;;;;16.26;46.55;102135.33;1740818;81;21047;-59
2021/10/06 07:04:40;;;;;;;19.45;6.15;;;;;;;15.65;48.08;102141.34;1745958;81;20893;-58
2021/10/06 07:07:10;;;;;;;24.15;6.08;;;;;;;15.30;49.03;102160.45;1740426;81;20939;-58
2021/10/06 07:09:36;;;;;;;17.42;6.03;;;;;;;14.94;49.52;102143.24;1749174;81;21489;-61
2021/10/06 07:12:03;;;;;;;16.37;5.72;;;;;;;14.49;50.27;102145.05;1743269;81;21144;-58
2021/10/06 07:14:30;;;;;;;17.62;6.65;;;;;;;14.08;50.84;102145.34;1745944;81;21318;-58
2021/10/06 07:16:56;;;;;;;12.47;5.90;;;;;;;13.76;51.87;102142.75;1741753;81;21034;-60
2021/10/06 07:19:23;;;;;;;10.03;5.92;;;;;;;13.60;52.36;102150.60;1750294;81;20967;-59
2021/10/06 07:21:49;;;;;;;11.20;6.30;;;;;;;13.36;52.84;102134.34;1744370;81;21023;-59
2021/10/06 07:24:16;;;;;;;9.40;5.90;;;;;;;13.23;53.36;102137.71;1741351;81;21283;-60
2021/10/06 07:26:44;;;;;;;10.20;6.05;;;;;;;13.22;53.33;102138.23;1745024;81;20952;-57
2021/10/06 07:29:10;;;;;;;11.80;5.27;;;;;;;13.26;52.74;102134.11;1744330;80;20924;-57
2021/10/06 07:31:38;;;;;;;15.38;5.58;;;;;;;13.26;52.92;102138.67;1745537;81;21108;-60
2021/10/06 07:34:05;;;;;;;14.50;5.85;;;;;;;13.30;52.57;102142.13;1743546;81;20932;-58
2021/10/06 07:36:32;;;;;;;13.50;5.80;;;;;;;13.35;53.13;102134.02;1744765;81;21134;-58
2021/10/06 07:38:59;;;;;;;12.85;5.78;;;;;;;13.36;53.43;102143.77;1742977;81;20992;-62
2021/10/06 07:41:26;;;;;;;11.05;5.95;;;;;;;13.42;53.10;102125.48;1744782;81;21023;-60
2021/10/06 07:43:53;;;;;;;10.20;5.30;;;;;;;13.47;53.04;102131.96;1744722;81;21012;-59
2021/10/06 07:46:20;;;;;;;8.43;5.55;;;;;;;13.57;52.21;102132.95;1746084;81;20948;-59
2021/10/06 07:48:46;;;;;;;19.57;5.47;;;;;;;13.56;52.33;102129.11;1744724;81;21160;-58
2021/10/06 07:51:13;;;;;;;19.75;6.42;;;;;;;13.48;51.99;102127.39;1741693;80;21086;-58
2021/10/06 07:53:40;;;;;;;14.10;5.97;;;;;;;13.32;52.02;102125.77;1741892;81;21568;-59
2021/10/06 07:56:08;;;;;;;;;;;;;;;13.14;52.72;102136.48;1747307;81;20968;-58
2021/10/06 07:58:35;;;;;;;16.80;5.60;;;;;;;13.07;52.68;102134.76;1747238;81;20459;-58
2021/10/06 08:01:02;;;;;;;6.55;4.70;;;;;;;13.03;52.97;102129.42;1742162;81;21098;-59
2021/10/06 08:03:29;;;;;;;12.20;4.67;;;;;;;13.01;52.08;102136.88;1741355;81;21008;-57
2021/10/06 08:05:56;;;;;;;12.10;4.35;;;;;;;12.93;51.36;102131.93;1741727;81;21435;-59
2021/10/06 08:08:27;;;;;;;12.37;4.50;;;;;;;12.90;50.95;102132.84;1744936;81;21039;-61
2021/10/06 08:10:51;;;;;;;13.32;4.65;;;;;;;12.89;49.72;102140.58;1743504;80;20967;-58
2021/10/06 08:13:17;;;;;;;15.58;4.97;;;;;;;12.89;49.77;102132.51;1743459;81;21133;-57
2021/10/06 08:15:44;;;;;;;18.12;5.30;;;;;;;12.93;50.19;102149.42;1744428;81;21027;-58
2021/10/06 08:18:12;;;;;;;11.65;5.12;;;;;;;13.04;50.28;102126.54;1742141;81;20988;-58
2021/10/06 08:20:38;;;;;;;11.00;4.60;;;;;;;13.16;48.88;102132.25;1743197;81;20984;-58
2021/10/06 08:23:07;;;;;;;9.35;4.72;;;;;;;13.23;48.60;102125.07;1743073;81;21027;-58
2021/10/06 08:25:34;;;;;;;12.15;5.17;;;;;;;13.24;46.74;102145.59;1744740;81;21167;-58
2021/10/06 08:28:00;;;;;;;13.13;4.87;;;;;;;13.09;46.50;102126.81;1741333;81;20979;-59
2021/10/06 08:30:29;;;;;;;12.55;4.60;;;;;;;13.02;47.52;102120.53;1748217;81;21035;-60
2021/10/06 08:32:55;;;;;;;7.28;4.40;;;;;;;13.06;47.04;102121.82;1745086;81;21000;-58
2021/10/06 08:35:22;;;;;;;11.97;3.90;;;;;;;13.06;46.49;102115.58;1739939;81;21079;-59
2021/10/06 08:37:48;;;;;;;11.63;4.33;;;;;;;13.01;45.35;102133.66;1744506;81;21794;-59
2021/10/06 08:40:14;;;;;;;9.20;3.62;;;;;;;12.88;45.32;102122.75;1751672;80;20968;-58
2021/10/06 08:42:41;;;;;;;5.78;3.83;;;;;;;12.82;45.48;102119.48;1741315;81;20971;-58
2021/10/06 08:45:09;;;;;;;13.08;5.10;;;;;;;12.78;45.84;102106.41;1738681;80;21551;-59
2021/10/06 08:47:39;;;;;;;10.95;4.10;;;;;;;12.78;46.40;102115.83;1744273;81;21024;-59
2021/10/06 08:50:16;;;;;;;8.18;4.20;;;;;;;12.83;46.83;102118.47;1741363;81;21541;-59
2021/10/06 08:52:47;;;;;;;8.55;3.67;;;;;;;12.82;46.77;102108.72;1743207;81;20944;-59
2021/10/06 08:55:14;;;;;;;14.07;4.10;;;;;;;12.76;46.72;102130.49;1744576;81;20976;-60
2021/10/06 08:57:41;;;;;;;4.95;3.58;;;;;;;12.79;45.86;102117.52;1743158;81;21040;-59
2021/10/06 09:00:09;;;;;;;11.80;4.33;;;;;;;12.68;45.66;102130.63;1749744;79;21070;-59
2021/10/06 09:02:38;;;;;;;13.30;4.37;;;;;;;12.53;46.33;102103.73;1745777;81;21870;-59
2021/10/06 09:05:05;;;;;;;;;;;;;;;12.49;46.85;102103.28;1743438;81;21501;-59
2021/10/06 09:07:33;;;;;;;12.10;5.62;;;;;;;12.55;46.58;102111.12;1745236;81;20148;-59
2021/10/06 09:10:14;;;;;;;11.33;6.85;;;;;;;12.63;46.77;102100.22;1747196;80;21036;-62
2021/10/06 09:12:45;;;;;;;8.75;4.95;;;;;;;12.76;46.52;102091.47;1745070;81;21040;-59
2021/10/06 09:15:12;;;;;;;7.78;4.03;;;;;;;12.87;46.42;102098.23;1711485;81;21143;-59
2021/10/06 09:17:38;;;;;;;14.30;4.62;;;;;;;12.93;45.14;102090.73;1744333;81;21051;-58
2021/10/06 09:20:09;;;;;;;17.40;4.70;;;;;;;12.86;45.92;102082.58;1744439;81;20951;-59
2021/10/06 09:22:36;;;;;;;7.65;3.98;;;;;;;12.92;45.83;102079.11;1744659;81;21537;-59
2021/10/06 09:25:07;;;;;;;7.65;4.65;;;;;;;13.01;44.83;102093.28;1741872;81;21067;-59
2021/10/06 09:27:41;;;;;;;4.85;3.85;;;;;;;13.00;44.24;102082.21;1745983;81;21167;-58
2021/10/06 09:30:10;;;;;;;10.88;4.90;;;;;;;12.97;44.95;102087.98;1742820;81;21262;-59
2021/10/06 09:32:43;;;;;;;6.67;4.15;;;;;;;12.93;43.74;102084.83;1748659;80;21035;-58
2021/10/06 09:35:17;;;;;;;10.63;4.30;;;;;;;12.76;43.43;102082.05;1742800;81;20912;-59
2021/10/06 09:37:50;;;;;;;9.00;3.98;;;;;;;12.58;44.43;102079.28;1746332;81;20927;-59
2021/10/06 09:40:19;;;;;;;11.60;3.65;;;;;;;12.54;45.56;102082.54;1749134;81;21175;-60
2021/10/06 09:42:48;;;;;;;4.65;3.33;;;;;;;12.59;44.65;102088.20;1758537;80;20919;-59
2021/10/06 09:45:43;;;;;;;4.70;3.70;;;;;;;12.64;44.17;102078.21;1755860;81;20938;-58
2021/10/06 09:48:13;;;;;;;9.55;3.72;;;;;;;12.68;44.31;102069.56;1742371;81;21051;-59
2021/10/06 09:50:47;;;;;;;11.38;3.30;;;;;;;12.71;43.19;102066.48;1757640;81;21027;-59
2021/10/06 09:53:20;;;;;;;4.55;3.37;;;;;;;12.69;43.15;102063.16;1754917;81;22290;-58
2021/10/06 09:55:52;;;;;;;9.10;3.80;;;;;;;12.70;43.12;102058.61;1761044;80;20963;-59
2021/10/06 09:58:20;;;;;;;4.05;3.30;;;;;;;12.72;43.94;102070.00;1757671;80;21019;-59
2021/10/06 10:00:48;;;;;;;8.75;3.80;;;;;;;12.71;42.94;102061.11;1756709;80;20998;-58
2021/10/06 10:03:15;;;;;;;5.95;3.90;;;;;;;12.70;43.79;102059.95;1757561;80;21562;-58
2021/10/06 10:05:42;;;;;;;10.13;3.75;;;;;;;12.76;43.21;102065.41;1755342;80;21170;-58
2021/10/06 10:08:09;;;;;;;7.40;3.47;;;;;;;12.79;43.22;102059.65;1760322;80;20979;-59
2021/10/06 10:10:37;;;;;;;4.28;2.90;;;;;;;12.83;42.49;102060.09;1755757;81;20888;-60
2021/10/06 10:13:06;;;;;;;9.23;3.42;;;;;;;12.87;42.14;102057.86;1759108;81;21001;-57
2021/10/06 10:15:35;;;;;;;6.75;3.58;;;;;;;12.90;42.39;102056.13;1757678;80;20955;-58
2021/10/06 10:18:04;;;;;;;4.20;2.75;;;;;;;12.93;42.86;102063.29;1755255;81;21296;-58
2021/10/06 10:20:37;;;;;;;6.37;2.92;;;;;;;12.99;40.58;102055.48;1757162;80;38250;-58
2021/10/06 10:23:04;;;;;;;9.38;3.50;;;;;;;12.97;41.20;102043.04;1759052;80;20939;-58
2021/10/06 10:25:41;;;;;;;7.47;3.40;;;;;;;12.91;41.19;102039.78;1760794;81;21458;-58
2021/10/06 10:28:14;;;;;;;13.18;3.98;;;;;;;12.84;41.55;102043.41;1758778;79;21429;-59
2021/10/06 10:31:01;;;;;;;7.17;2.98;;;;;;;12.79;40.21;102038.12;1760042;80;21138;-58
2021/10/06 10:33:48;;;;;;;4.17;2.95;;;;;;;12.72;39.86;102046.64;1761151;80;20900;-58
2021/10/06 10:36:43;;;;;;;8.75;3.40;;;;;;;12.67;39.96;102045.02;1754416;81;21062;-60
2021/10/06 10:39:38;;;;;;;5.10;2.90;;;;;;;12.67;40.61;102032.09;1755196;80;21549;-58
2021/10/06 10:42:05;;;;;;;10.23;2.77;;;;;;;12.73;40.12;102040.73;1723330;81;21026;-59
2021/10/06 10:44:37;;;;;;;7.00;2.65;;;;;;;12.75;39.85;102024.72;1727146;81;20991;-60
2021/10/06 10:47:05;;;;;;;6.08;2.92;;;;;;;12.77;39.06;102030.73;1723320;81;21012;-59
2021/10/06 10:49:47;;;;;;;9.38;2.75;;;;;;;12.78;38.45;102036.45;1711981;82;21016;-58
2021/10/06 10:52:15;;;;;;;8.65;3.40;;;;;;;12.79;38.76;102021.13;1712422;82;21612;-58
2021/10/06 10:54:44;;;;;;;8.43;2.93;;;;;;;12.83;37.78;102018.89;1714237;81;20949;-59
2021/10/06 10:57:27;;;;;;;5.78;3.10;;;;;;;12.83;37.78;102018.89;1715316;81;21313;-57
2021/10/06 10:59:57;;;;;;;4.22;2.92;;;;;;;12.82;37.57;102021.25;1714026;83;20990;-58
2021/10/06 11:02:41;;;;;;;5.30;3.27;;;;;;;12.76;38.52;102022.86;1699366;83;21051;-58
2021/10/06 11:05:08;;;;;;;5.00;3.30;;;;;;;12.69;38.76;102015.23;1714288;82;20980;-59
2021/10/06 11:07:50;;;;;;;9.60;2.87;;;;;;;12.62;39.78;102016.52;1710392;83;21003;-59
2021/10/06 11:10:18;;;;;;;8.13;3.52;;;;;;;12.65;39.83;102018.83;1711698;82;21107;-58
2021/10/06 11:13:03;;;;;;;4.60;2.80;;;;;;;12.68;39.29;102002.30;1709114;83;20925;-59
2021/10/06 11:15:26;;;;;;;4.10;2.80;;;;;;;12.71;38.65;102011.33;1712924;83;20991;-58
2021/10/06 11:18:17;;;;;;;9.83;3.20;;;;;;;12.69;37.80;101991.02;1720461;81;21034;-60
2021/10/06 11:20:52;;;;;;;6.47;3.40;;;;;;;12.67;38.42;102006.00;1714306;83;20881;-59
2021/10/06 11:23:40;;;;;;;9.08;2.75;;;;;;;12.71;38.41;102007.81;1713766;83;21182;-59
2021/10/06 11:26:17;;;;;;;11.30;3.02;;;;;;;12.64;37.76;101994.28;1711079;83;21015;-59